Time;durP1;ratioP1;P1;durP2;ratioP2;P2;SDS_P1;SDS_P2;PMS_P1;PMS_P2;Temp;Humidity;BMP_temperature;BMP_pressure;BME280_temperature;BME280_humidity;BME280_pressure;Samples;Min_cycle;Max_cycle;Signal;HPM_P1;HPM_P2
2023/12/23 00:00:17;;;;;;;2.20;2.00;;;10.40;99.90;;;;;;10507582;28;20283;-76
2023/12/23 00:05:19;;;;;;;2.30;2.10;;;10.40;99.90;;;;;;10491011;28;20196;-76
2023/12/23 00:10:23;;;;;;;4.67;3.00;;;10.30;99.90;;;;;;10508203;28;20647;-77
2023/12/23 00:15:25;;;;;;;5.70;2.70;;;10.30;99.90;;;;;;10509468;28;20272;-77
2023/12/23 00:20:28;;;;;;;4.23;2.60;;;10.30;99.90;;;;;;10509959;28;20220;-79
2023/12/23 00:25:40;;;;;;;5.07;1.77;;;10.30;99.90;;;;;;10519061;22;20236;-79
2023/12/23 00:30:43;;;;;;;2.30;1.97;;;10.30;99.90;;;;;;10488750;28;20690;-79
2023/12/23 00:35:48;;;;;;;2.77;2.10;;;10.40;99.90;;;;;;10482575;28;20229;-79
2023/12/23 00:40:52;;;;;;;4.10;2.40;;;10.30;99.90;;;;;;10485826;28;20181;-79
2023/12/23 00:45:55;;;;;;;2.70;2.00;;;10.30;99.90;;;;;;10482844;28;20217;-78
2023/12/23 00:50:57;;;;;;;5.00;2.20;;;10.20;99.90;;;;;;10469502;28;20615;-78
2023/12/23 00:56:01;;;;;;;2.90;2.00;;;10.10;99.90;;;;;;10483427;28;20697;-79
2023/12/23 01:01:03;;;;;;;8.23;2.20;;;10.00;99.90;;;;;;10469608;28;20196;-79
2023/12/23 01:06:06;;;;;;;7.07;2.20;;;9.90;99.90;;;;;;10484872;28;20205;-81
2023/12/23 01:11:11;;;;;;;1.77;1.67;;;9.90;99.90;;;;;;10488318;28;20398;-81
2023/12/23 01:16:13;;;;;;;3.97;1.67;;;9.90;99.90;;;;;;10487539;28;20232;-81
2023/12/23 01:21:20;;;;;;;2.10;2.00;;;9.90;99.90;;;;;;10488008;28;20512;-81
2023/12/23 01:26:23;;;;;;;2.70;1.80;;;9.90;99.90;;;;;;10483360;28;20197;-79
2023/12/23 01:31:26;;;;;;;2.83;1.80;;;10.00;99.90;;;;;;10448039;28;20263;-78
2023/12/23 01:36:28;;;;;;;2.07;1.80;;;10.00;99.90;;;;;;10472182;28;20585;-81
2023/12/23 01:41:32;;;;;;;2.37;1.70;;;9.90;99.90;;;;;;10469556;28;20239;-81
2023/12/23 01:46:34;;;;;;;4.50;1.93;;;9.90;99.90;;;;;;10472271;28;20188;-81
2023/12/23 01:51:36;;;;;;;3.87;2.00;;;9.90;99.90;;;;;;10449250;28;20639;-81
2023/12/23 01:56:41;;;;;;;2.10;1.90;;;9.80;99.90;;;;;;10467658;28;20228;-80
2023/12/23 02:01:44;;;;;;;2.60;2.10;;;9.80;99.90;;;;;;10443662;28;20274;-81
2023/12/23 02:06:46;;;;;;;3.73;1.97;;;9.80;99.90;;;;;;10465844;28;20201;-81
2023/12/23 02:12:00;;;;;;;4.93;3.47;;;9.80;99.90;;;;;;10464576;28;20216;-80
2023/12/23 02:17:03;;;;;;;2.30;2.10;;;9.90;99.90;;;;;;10469687;28;20213;-80
2023/12/23 02:22:07;;;;;;;3.80;2.10;;;9.90;99.90;;;;;;10436169;28;20221;-81
2023/12/23 02:27:12;;;;;;;3.67;2.20;;;9.90;99.90;;;;;;10473093;28;20220;-80
2023/12/23 02:32:15;;;;;;;2.60;2.00;;;9.80;99.90;;;;;;10467866;28;20225;-80
2023/12/23 02:37:19;;;;;;;2.97;1.50;;;9.90;99.90;;;;;;10469621;28;20221;-77
2023/12/23 02:42:21;;;;;;;5.93;2.00;;;9.80;99.90;;;;;;10461474;28;20226;-78
2023/12/23 02:47:24;;;;;;;2.10;2.00;;;9.70;99.90;;;;;;10465574;28;20193;-78
2023/12/23 02:52:27;;;;;;;2.53;2.30;;;9.80;99.90;;;;;;10461875;28;20225;-78
2023/12/23 02:57:30;;;;;;;1.77;1.67;;;9.80;99.90;;;;;;10469654;28;20217;-77
2023/12/23 03:02:32;;;;;;;3.10;2.30;;;9.80;99.90;;;;;;10460664;28;20217;-77
2023/12/23 03:07:36;;;;;;;4.23;1.90;;;9.90;99.90;;;;;;10451228;28;20197;-78
2023/12/23 03:12:38;;;;;;;4.53;2.37;;;9.90;99.90;;;;;;10445974;28;20221;-77
2023/12/23 03:17:43;;;;;;;3.43;2.20;;;9.90;99.90;;;;;;10474350;28;20213;-78
2023/12/23 03:22:48;;;;;;;2.93;2.20;;;9.80;99.90;;;;;;10467034;28;20244;-78
2023/12/23 03:27:50;;;;;;;4.80;2.33;;;9.80;99.90;;;;;;10456484;28;20259;-78
2023/12/23 03:32:52;;;;;;;2.60;2.33;;;9.80;99.90;;;;;;10464177;28;20217;-78
2023/12/23 03:37:56;;;;;;;4.83;2.40;;;9.90;99.90;;;;;;10474813;28;20229;-78
2023/12/23 03:42:58;;;;;;;2.37;1.70;;;9.90;99.90;;;;;;10450639;28;20523;-78
2023/12/23 03:48:01;;;;;;;2.20;1.97;;;9.90;99.90;;;;;;10481469;28;20597;-78
2023/12/23 03:53:04;;;;;;;3.70;1.87;;;9.90;99.90;;;;;;10450630;28;20244;-78
2023/12/23 03:58:07;;;;;;;1.80;1.70;;;9.90;99.90;;;;;;10475319;28;20271;-78
2023/12/23 04:03:09;;;;;;;2.10;1.83;;;9.90;99.90;;;;;;10462583;28;20209;-78
2023/12/23 04:08:13;;;;;;;2.23;1.80;;;9.90;99.90;;;;;;10474895;28;20197;-77
2023/12/23 04:13:16;;;;;;;3.60;2.67;;;9.90;99.90;;;;;;10446728;28;20217;-78
2023/12/23 04:18:19;;;;;;;5.13;2.10;;;9.90;99.90;;;;;;10477171;28;20278;-78
2023/12/23 04:23:23;;;;;;;5.60;2.43;;;9.90;99.90;;;;;;10448257;28;20233;-78
2023/12/23 04:28:25;;;;;;;2.73;2.27;;;9.80;99.90;;;;;;10479682;28;20263;-78
2023/12/23 04:33:28;;;;;;;2.60;2.40;;;9.80;99.90;;;;;;10445483;28;20294;-78
2023/12/23 04:38:32;;;;;;;3.50;2.00;;;9.80;99.90;;;;;;10477791;28;20217;-78
2023/12/23 04:43:36;;;;;;;3.20;1.83;;;9.80;99.90;;;;;;10429406;28;20217;-78
2023/12/23 04:48:39;;;;;;;2.67;2.17;;;9.90;99.90;;;;;;10477417;28;20243;-78
2023/12/23 04:53:43;;;;;;;1.57;1.47;;;9.90;99.90;;;;;;10443932;28;20225;-78
2023/12/23 04:58:45;;;;;;;2.30;2.00;;;9.90;99.90;;;;;;10462879;28;20248;-78
2023/12/23 05:03:48;;;;;;;1.93;1.70;;;9.90;99.90;;;;;;10446170;28;20221;-78
2023/12/23 05:08:51;;;;;;;1.63;1.57;;;9.90;99.90;;;;;;10488989;28;20193;-78
2023/12/23 05:13:54;;;;;;;2.53;2.10;;;9.90;99.90;;;;;;10452271;28;20274;-78
2023/12/23 05:18:56;;;;;;;3.07;1.93;;;9.90;99.90;;;;;;10467064;28;20725;-78
2023/12/23 05:24:00;;;;;;;2.60;1.50;;;9.90;99.90;;;;;;10448142;28;20220;-78
2023/12/23 05:29:02;;;;;;;2.30;1.20;;;9.90;99.90;;;;;;10485827;28;20231;-78
2023/12/23 05:34:05;;;;;;;1.93;1.40;;;9.90;99.90;;;;;;10448577;28;20231;-78
2023/12/23 05:39:10;;;;;;;2.17;1.97;;;10.00;99.90;;;;;;10484616;28;20217;-78
2023/12/23 05:44:12;;;;;;;1.30;1.30;;;10.00;99.90;;;;;;10464231;28;20233;-78
2023/12/23 05:49:14;;;;;;;2.47;1.43;;;9.90;99.90;;;;;;10485521;28;20198;-78
2023/12/23 05:54:18;;;;;;;1.37;1.37;;;10.00;99.90;;;;;;10447297;28;20213;-78
2023/12/23 05:59:20;;;;;;;1.40;1.30;;;10.00;99.90;;;;;;10486666;28;20572;-78
2023/12/23 06:04:23;;;;;;;1.77;1.37;;;9.90;99.90;;;;;;10464746;28;20229;-78
2023/12/23 06:09:26;;;;;;;1.40;1.40;;;9.90;99.90;;;;;;10489417;28;20209;-78
2023/12/23 06:14:29;;;;;;;1.20;1.20;;;9.80;99.90;;;;;;10447758;28;20224;-78
2023/12/23 06:19:31;;;;;;;1.20;1.20;;;9.70;99.90;;;;;;10488650;28;20221;-78
2023/12/23 06:24:35;;;;;;;1.00;1.00;;;9.70;99.90;;;;;;10502080;22;20270;-78
2023/12/23 06:29:37;;;;;;;1.30;1.20;;;9.70;99.90;;;;;;10499592;28;20193;-80
2023/12/23 06:34:39;;;;;;;1.60;1.50;;;9.70;99.90;;;;;;10490017;28;20233;-77
2023/12/23 06:39:43;;;;;;;0.80;0.80;;;9.70;99.90;;;;;;10454744;28;20217;-77
2023/12/23 06:44:46;;;;;;;1.47;1.47;;;9.70;99.90;;;;;;10481354;28;20217;-79
2023/12/23 06:49:48;;;;;;;1.57;1.30;;;9.70;99.90;;;;;;10456489;28;20643;-78
2023/12/23 06:54:52;;;;;;;0.93;0.93;;;9.70;99.90;;;;;;10482139;28;20225;-78
2023/12/23 06:59:54;;;;;;;1.30;1.30;;;9.70;99.90;;;;;;10436699;28;20263;-77
2023/12/23 07:04:57;;;;;;;1.10;1.10;;;9.70;99.90;;;;;;10483324;28;20217;-80
2023/12/23 07:10:00;;;;;;;1.30;1.30;;;9.60;99.90;;;;;;10461761;28;20189;-80
2023/12/23 07:15:06;;;;;;;1.20;1.10;;;9.70;99.90;;;;;;10482491;28;20222;-79
2023/12/23 07:20:09;;;;;;;1.63;1.63;;;9.70;99.90;;;;;;10460219;28;20213;-78
2023/12/23 07:25:13;;;;;;;1.87;1.70;;;9.70;99.90;;;;;;10484410;28;20702;-77
2023/12/23 07:30:16;;;;;;;1.50;1.40;;;9.70;99.90;;;;;;10436355;28;20201;-79
2023/12/23 07:35:18;;;;;;;1.10;1.10;;;9.70;99.90;;;;;;10482871;28;20702;-79
2023/12/23 07:40:22;;;;;;;2.40;1.30;;;9.70;99.90;;;;;;10459910;28;20205;-80
2023/12/23 07:45:24;;;;;;;1.00;1.00;;;9.70;99.90;;;;;;10483372;28;20210;-76
2023/12/23 07:50:28;;;;;;;1.40;1.40;;;9.80;99.90;;;;;;10463425;28;20216;-80
2023/12/23 07:55:31;;;;;;;1.50;1.40;;;9.80;99.90;;;;;;10497074;28;20605;-79
2023/12/23 08:00:34;;;;;;;1.50;1.40;;;9.80;99.90;;;;;;10462279;28;20217;-79
2023/12/23 08:05:36;;;;;;;1.20;1.20;;;9.80;99.90;;;;;;10494126;28;20220;-78
2023/12/23 08:10:40;;;;;;;0.97;0.97;;;9.80;99.90;;;;;;10460708;28;20254;-78
2023/12/23 08:15:42;;;;;;;1.10;1.10;;;9.90;99.90;;;;;;10495519;28;20297;-80
2023/12/23 08:20:45;;;;;;;1.67;1.20;;;9.90;99.90;;;;;;10468690;28;20397;-79
2023/12/23 08:25:49;;;;;;;1.30;1.30;;;9.90;99.90;;;;;;10500608;28;20705;-79
2023/12/23 08:30:51;;;;;;;1.60;1.33;;;9.90;99.90;;;;;;10462847;28;20193;-81
2023/12/23 08:35:54;;;;;;;1.00;1.00;;;9.90;99.90;;;;;;10479963;28;20233;-79
2023/12/23 08:40:57;;;;;;;1.20;1.20;;;10.00;99.90;;;;;;10464406;28;20212;-78
2023/12/23 08:46:00;;;;;;;2.80;1.20;;;10.10;99.90;;;;;;10502273;28;20634;-78
2023/12/23 08:51:02;;;;;;;1.20;1.20;;;10.00;99.90;;;;;;10469340;28;20189;-78
2023/12/23 08:56:06;;;;;;;1.70;1.20;;;10.10;99.90;;;;;;10463435;28;20674;-79
2023/12/23 09:01:09;;;;;;;1.57;1.47;;;10.10;99.90;;;;;;10462824;28;20221;-77
2023/12/23 09:06:12;;;;;;;1.00;1.00;;;10.10;99.90;;;;;;10502042;28;20234;-79
2023/12/23 09:11:16;;;;;;;1.13;0.90;;;10.10;99.90;;;;;;10472302;28;20193;-79
2023/12/23 09:16:18;;;;;;;0.93;0.70;;;10.20;99.90;;;;;;10509656;28;20247;-78
2023/12/23 09:21:21;;;;;;;1.20;1.10;;;10.20;99.90;;;;;;10474354;28;20209;-79
2023/12/23 09:26:25;;;;;;;1.20;1.10;;;10.20;99.90;;;;;;10509662;28;20228;-79
2023/12/23 09:31:27;;;;;;;1.40;1.30;;;10.30;99.90;;;;;;10475572;28;20193;-78
2023/12/23 09:36:29;;;;;;;1.00;1.00;;;10.30;99.90;;;;;;10509374;28;20243;-79
2023/12/23 09:41:33;;;;;;;0.97;0.97;;;10.40;99.90;;;;;;10472029;28;20287;-77
2023/12/23 09:46:37;;;;;;;1.00;1.00;;;10.50;99.90;;;;;;10510392;28;20282;-78
2023/12/23 09:51:39;;;;;;;1.00;1.00;;;10.50;99.90;;;;;;10473466;28;20208;-79
2023/12/23 09:56:43;;;;;;;3.47;1.37;;;10.60;99.90;;;;;;10506097;28;20216;-79
2023/12/23 10:01:46;;;;;;;1.00;1.00;;;10.50;99.90;;;;;;10470831;28;20228;-77
2023/12/23 10:06:48;;;;;;;4.87;4.53;;;10.50;99.90;;;;;;10470130;28;20558;-79
2023/12/23 10:11:52;;;;;;;1.20;1.20;;;10.60;99.90;;;;;;10469666;28;20193;-78
2023/12/23 10:16:54;;;;;;;1.27;1.10;;;10.60;99.90;;;;;;10467454;28;20223;-79
2023/12/23 10:21:56;;;;;;;1.03;1.03;;;10.70;99.90;;;;;;10474549;28;20235;-79
2023/12/23 10:27:00;;;;;;;1.30;1.20;;;10.70;99.90;;;;;;10473167;28;20288;-79
2023/12/23 10:32:05;;;;;;;1.00;1.00;;;10.70;99.90;;;;;;10471485;28;20263;-79
2023/12/23 10:37:07;;;;;;;0.97;0.97;;;10.70;99.90;;;;;;10462772;28;20251;-77
2023/12/23 10:42:15;;;;;;;1.00;1.00;;;10.70;99.90;;;;;;10463341;28;20714;-77
2023/12/23 10:47:18;;;;;;;1.10;1.10;;;10.70;99.90;;;;;;10458363;28;20651;-77
2023/12/23 10:52:21;;;;;;;2.00;1.20;;;10.80;99.90;;;;;;10458945;28;20229;-76
2023/12/23 10:57:25;;;;;;;1.30;1.30;;;10.80;99.90;;;;;;10452373;28;20608;-76
2023/12/23 11:02:29;;;;;;;1.10;1.10;;;10.80;99.90;;;;;;10457538;28;20262;-77
2023/12/23 11:07:36;;;;;;;0.77;0.77;;;10.90;99.90;;;;;;10457072;28;20259;-76
2023/12/23 11:12:42;;;;;;;1.00;1.00;;;10.90;99.90;;;;;;10434170;28;20324;-77
2023/12/23 11:17:47;;;;;;;0.97;0.97;;;11.00;99.90;;;;;;10456699;28;20189;-76
2023/12/23 11:22:49;;;;;;;1.00;1.00;;;11.00;99.90;;;;;;10452569;28;20229;-76
2023/12/23 11:27:53;;;;;;;1.40;1.30;;;11.00;99.90;;;;;;10457292;28;20201;-75
2023/12/23 11:32:55;;;;;;;2.80;1.43;;;11.00;99.90;;;;;;10434161;28;20225;-77
2023/12/23 11:38:00;;;;;;;1.30;1.20;;;11.10;99.90;;;;;;10457094;28;20220;-77
2023/12/23 11:43:05;;;;;;;1.23;1.13;;;11.10;99.90;;;;;;10452296;28;20229;-76
2023/12/23 11:48:08;;;;;;;1.37;1.37;;;11.20;99.90;;;;;;10456990;28;20642;-77
2023/12/23 11:53:11;;;;;;;2.70;1.03;;;11.20;99.90;;;;;;10452208;28;20221;-77
2023/12/23 11:58:16;;;;;;;2.10;1.10;;;11.20;99.90;;;;;;10456781;28;20221;-76
2023/12/23 12:03:19;;;;;;;1.10;1.10;;;11.20;99.90;;;;;;10452746;28;20217;-76
2023/12/23 12:08:21;;;;;;;1.90;1.67;;;11.10;99.90;;;;;;10457053;28;20189;-76
2023/12/23 12:13:29;;;;;;;14.30;2.60;;;11.10;99.90;;;;;;10452967;28;20209;-76
2023/12/23 12:18:34;;;;;;;1.23;1.23;;;11.10;99.90;;;;;;10455606;28;20286;-77
2023/12/23 12:23:38;;;;;;;0.73;0.73;;;11.10;99.90;;;;;;10437156;28;20223;-77
2023/12/23 12:28:42;;;;;;;10.23;1.80;;;11.10;99.90;;;;;;10456663;28;20194;-75
2023/12/23 12:33:44;;;;;;;1.63;1.23;;;11.10;99.90;;;;;;10435528;28;20542;-76
2023/12/23 12:38:47;;;;;;;1.00;1.00;;;11.00;99.90;;;;;;10455201;28;20718;-77
2023/12/23 12:43:50;;;;;;;1.20;1.10;;;11.00;99.90;;;;;;10453727;28;20278;-76
2023/12/23 12:48:53;;;;;;;1.10;1.10;;;11.00;99.90;;;;;;10457340;28;20193;-75
2023/12/23 12:53:55;;;;;;;1.27;1.23;;;11.00;99.90;;;;;;10454244;28;20577;-76
2023/12/23 12:58:59;;;;;;;1.83;1.00;;;11.00;99.90;;;;;;10440201;28;20221;-76
2023/12/23 13:04:01;;;;;;;4.37;2.10;;;11.10;99.90;;;;;;10454159;28;20209;-76
2023/12/23 13:09:04;;;;;;;6.80;1.83;;;11.10;99.90;;;;;;10440468;28;20254;-76
2023/12/23 13:14:08;;;;;;;12.60;2.17;;;11.10;99.90;;;;;;10453408;28;20216;-76
2023/12/23 13:19:10;;;;;;;1.20;1.20;;;11.10;99.90;;;;;;10457715;28;20209;-76
2023/12/23 13:24:13;;;;;;;1.00;1.00;;;11.10;99.90;;;;;;10435810;28;20254;-75
2023/12/23 13:29:18;;;;;;;0.80;0.80;;;11.10;99.90;;;;;;10463978;28;20222;-75
2023/12/23 13:34:20;;;;;;;1.07;1.00;;;11.20;99.90;;;;;;10461671;28;20223;-76
2023/12/23 13:39:23;;;;;;;0.90;0.90;;;11.10;99.90;;;;;;10466428;28;20221;-76
2023/12/23 13:44:27;;;;;;;1.13;1.10;;;11.10;99.90;;;;;;10461492;28;20357;-75
2023/12/23 13:49:29;;;;;;;0.90;0.90;;;11.00;99.90;;;;;;10465623;28;20193;-77
2023/12/23 13:54:31;;;;;;;1.10;1.00;;;11.00;99.90;;;;;;10461260;28;20228;-77
2023/12/23 13:59:35;;;;;;;1.43;1.27;;;11.00;99.90;;;;;;10466860;28;20547;-77
2023/12/23 14:04:37;;;;;;;0.83;0.83;;;11.00;99.90;;;;;;10477946;28;20254;-76
2023/12/23 14:09:40;;;;;;;1.67;1.00;;;11.00;99.90;;;;;;10467918;28;20194;-77
2023/12/23 14:14:45;;;;;;;0.90;0.90;;;10.90;99.90;;;;;;10459709;28;20216;-77
2023/12/23 14:19:47;;;;;;;1.77;1.10;;;10.90;99.90;;;;;;10467360;28;20209;-77
2023/12/23 14:24:50;;;;;;;0.97;0.87;;;10.80;99.90;;;;;;10478737;28;20549;-76
2023/12/23 14:29:53;;;;;;;1.00;1.00;;;10.80;99.90;;;;;;10467971;28;20609;-76
2023/12/23 14:34:55;;;;;;;1.10;1.10;;;10.80;99.90;;;;;;10477212;28;20228;-76
2023/12/23 14:39:58;;;;;;;1.00;1.00;;;10.70;99.90;;;;;;10466981;28;20633;-76
2023/12/23 14:45:02;;;;;;;2.70;1.30;;;10.80;99.90;;;;;;10459025;28;20638;-76
2023/12/23 14:50:05;;;;;;;0.70;0.70;;;10.70;99.90;;;;;;10468222;28;20644;-76
2023/12/23 14:55:08;;;;;;;0.97;0.97;;;10.70;99.90;;;;;;10476712;28;20224;-76
2023/12/23 15:00:15;;;;;;;0.90;0.90;;;10.70;99.90;;;;;;10468152;28;20213;-76
2023/12/23 15:05:17;;;;;;;0.93;0.93;;;10.60;99.90;;;;;;10477422;28;20674;-76
2023/12/23 15:10:20;;;;;;;15.80;1.77;;;10.60;99.90;;;;;;10468051;28;20259;-76
2023/12/23 15:15:24;;;;;;;1.30;1.30;;;10.60;99.90;;;;;;10452351;28;20264;-76
2023/12/23 15:20:26;;;;;;;1.63;1.07;;;10.50;99.90;;;;;;10452315;28;20228;-76
2023/12/23 15:25:28;;;;;;;3.13;1.17;;;10.50;99.90;;;;;;10451685;28;20221;-76
2023/12/23 15:30:32;;;;;;;0.77;0.77;;;10.50;99.90;;;;;;10452742;28;20205;-77
2023/12/23 15:35:34;;;;;;;2.20;1.00;;;10.50;99.90;;;;;;10450725;28;20228;-76
2023/12/23 15:40:37;;;;;;;1.00;1.00;;;10.50;99.90;;;;;;10455553;28;20212;-77
2023/12/23 15:45:40;;;;;;;1.03;1.03;;;10.50;99.90;;;;;;10452649;28;20259;-77
2023/12/23 15:50:43;;;;;;;0.97;0.97;;;10.60;99.90;;;;;;10457269;28;20197;-78
2023/12/23 15:55:45;;;;;;;1.30;1.20;;;10.50;99.90;;;;;;10450355;28;20225;-76
2023/12/23 16:00:49;;;;;;;1.00;1.00;;;10.50;99.90;;;;;;10451894;28;20217;-76
2023/12/23 16:05:51;;;;;;;1.07;1.07;;;10.50;99.90;;;;;;10449335;28;20214;-77
2023/12/23 16:10:54;;;;;;;0.87;0.87;;;10.40;99.90;;;;;;10452551;28;20251;-77
2023/12/23 16:15:58;;;;;;;1.33;1.27;;;10.40;99.90;;;;;;10448928;28;20221;-76
2023/12/23 16:21:00;;;;;;;1.17;1.17;;;10.40;99.90;;;;;;10454472;28;20213;-76
2023/12/23 16:26:02;;;;;;;1.37;1.20;;;10.40;99.90;;;;;;10448899;28;20225;-77
2023/12/23 16:31:06;;;;;;;1.10;1.10;;;10.40;99.90;;;;;;10453826;28;20271;-77
2023/12/23 16:36:10;;;;;;;1.27;1.23;;;10.50;99.90;;;;;;10431624;28;20223;-79
2023/12/23 16:41:12;;;;;;;1.23;1.23;;;10.50;99.90;;;;;;10467539;28;20274;-79
2023/12/23 16:46:16;;;;;;;3.17;2.87;;;10.50;99.90;;;;;;10469243;28;20217;-79
2023/12/23 16:51:18;;;;;;;1.40;1.30;;;10.60;99.90;;;;;;10463504;28;20212;-80
2023/12/23 16:56:21;;;;;;;1.37;1.27;;;10.60;99.90;;;;;;10462385;28;20232;-81
2023/12/23 17:01:26;;;;;;;2.30;1.30;;;10.60;99.90;;;;;;10448605;28;20675;-81
2023/12/23 17:06:28;;;;;;;1.10;1.00;;;10.60;99.90;;;;;;10470618;28;20698;-80
2023/12/23 17:11:30;;;;;;;1.10;1.10;;;10.60;99.90;;;;;;10456580;28;20606;-80
2023/12/23 17:16:34;;;;;;;1.40;1.30;;;10.50;99.90;;;;;;10468850;28;20217;-81
2023/12/23 17:21:36;;;;;;;1.07;1.07;;;10.50;99.90;;;;;;10476004;28;20221;-81
2023/12/23 17:26:39;;;;;;;1.43;1.33;;;10.50;99.90;;;;;;10482544;28;20314;-79
2023/12/23 17:31:43;;;;;;;1.20;1.20;;;10.50;99.90;;;;;;10468555;28;20202;-80
2023/12/23 17:36:48;;;;;;;1.63;1.53;;;10.50;99.90;;;;;;10447866;28;20205;-80
2023/12/23 17:41:51;;;;;;;1.37;1.27;;;10.50;99.90;;;;;;10445701;28;20221;-79
2023/12/23 17:46:55;;;;;;;1.40;1.40;;;10.50;99.90;;;;;;10444354;28;20605;-80
2023/12/23 17:51:57;;;;;;;1.60;1.50;;;10.40;99.90;;;;;;10474628;28;20196;-79
2023/12/23 17:56:59;;;;;;;1.37;1.27;;;10.40;99.90;;;;;;10463225;28;20197;-79
2023/12/23 18:02:03;;;;;;;1.10;1.10;;;10.40;99.90;;;;;;10462652;28;20624;-79
2023/12/23 18:07:06;;;;;;;1.03;1.03;;;10.30;99.90;;;;;;10462745;28;20659;-80
2023/12/23 18:12:08;;;;;;;1.10;1.10;;;10.30;99.90;;;;;;10444428;28;20218;-80
2023/12/23 18:17:12;;;;;;;1.50;1.40;;;10.30;99.90;;;;;;10461989;28;20277;-80
2023/12/23 18:22:14;;;;;;;1.83;1.73;;;10.30;99.90;;;;;;10454938;28;20229;-77
2023/12/23 18:27:17;;;;;;;1.50;1.40;;;10.30;99.90;;;;;;10473147;22;20783;-78
2023/12/23 18:32:21;;;;;;;1.53;1.43;;;10.30;99.90;;;;;;10438652;28;20200;-77
2023/12/23 18:37:23;;;;;;;1.60;1.50;;;10.30;99.90;;;;;;10446306;28;20221;-78
2023/12/23 18:42:25;;;;;;;2.27;2.07;;;10.30;99.90;;;;;;10467833;28;20239;-77
2023/12/23 18:47:29;;;;;;;1.50;1.40;;;10.20;99.90;;;;;;10458520;28;20221;-77
2023/12/23 18:52:31;;;;;;;2.10;1.40;;;10.30;99.90;;;;;;10461910;28;20208;-77
2023/12/23 18:57:34;;;;;;;2.77;1.77;;;10.30;99.90;;;;;;10432921;28;20201;-77
2023/12/23 19:02:37;;;;;;;1.63;1.53;;;10.30;99.90;;;;;;10461704;28;20246;-78
2023/12/23 19:07:40;;;;;;;1.50;1.40;;;10.30;99.90;;;;;;10453828;28;20575;-77
2023/12/23 19:12:42;;;;;;;2.43;1.80;;;10.30;99.90;;;;;;10458758;28;20197;-78
2023/12/23 19:17:46;;;;;;;1.90;1.80;;;10.30;99.90;;;;;;10449376;28;20204;-78
2023/12/23 19:22:48;;;;;;;1.60;1.60;;;10.30;99.90;;;;;;10456154;28;20228;-77
2023/12/23 19:27:51;;;;;;;1.30;1.20;;;10.30;99.90;;;;;;10459238;28;20204;-78
2023/12/23 19:32:55;;;;;;;1.93;1.83;;;10.30;99.90;;;;;;10440106;28;20597;-78
2023/12/23 19:37:57;;;;;;;1.50;1.40;;;10.30;99.90;;;;;;10460500;28;20200;-78
2023/12/23 19:43:00;;;;;;;1.60;1.50;;;10.30;99.90;;;;;;10441593;28;20279;-79
2023/12/23 19:48:06;;;;;;;2.30;2.17;;;10.20;99.90;;;;;;10467347;28;20212;-79
2023/12/23 19:53:08;;;;;;;1.53;1.43;;;10.20;99.90;;;;;;10456057;28;20661;-78
2023/12/23 19:58:11;;;;;;;2.03;1.80;;;10.20;99.90;;;;;;10442915;28;20207;-79
2023/12/23 20:03:17;;;;;;;2.00;1.90;;;10.20;99.90;;;;;;10456761;28;20221;-79
2023/12/23 20:08:20;;;;;;;1.67;1.57;;;10.20;99.90;;;;;;10463674;28;20262;-79
2023/12/23 20:13:22;;;;;;;1.80;1.70;;;10.20;99.90;;;;;;10437129;28;20213;-79
2023/12/23 20:18:26;;;;;;;1.80;1.80;;;10.20;99.90;;;;;;10442872;28;20208;-79
2023/12/23 20:23:28;;;;;;;1.53;1.47;;;10.10;99.90;;;;;;10474995;28;20228;-79
2023/12/23 20:28:30;;;;;;;1.50;1.50;;;10.20;99.90;;;;;;10462110;28;20696;-78
2023/12/23 20:33:34;;;;;;;1.60;1.50;;;10.20;99.90;;;;;;10455883;28;20220;-80
2023/12/23 20:38:37;;;;;;;1.67;1.57;;;10.20;99.90;;;;;;10430917;28;20213;-80
2023/12/23 20:43:39;;;;;;;2.30;2.03;;;10.20;99.90;;;;;;10454189;28;20609;-80
2023/12/23 20:48:43;;;;;;;1.40;1.30;;;10.20;99.90;;;;;;10452698;28;20259;-79
2023/12/23 20:53:46;;;;;;;1.60;1.50;;;10.20;99.90;;;;;;10448270;28;20218;-79
2023/12/23 20:59:20;;;;;;;;;;;;;;;;;;;;;
2023/12/23 21:04:40;;;;;;;1.00;1.00;;;10.10;99.90;;;;;;10432975;28;20224;-79
2023/12/23 21:09:42;;;;;;;2.30;1.53;;;10.10;99.90;;;;;;10448767;28;20682;-79
2023/12/23 21:14:45;;;;;;;1.40;1.30;;;10.10;99.90;;;;;;10437391;28;20244;-79
2023/12/23 21:19:49;;;;;;;1.33;1.33;;;10.10;99.90;;;;;;10428676;28;20209;-79
2023/12/23 21:24:53;;;;;;;1.63;1.53;;;10.10;99.90;;;;;;10454581;28;20255;-80
2023/12/23 21:29:55;;;;;;;1.37;1.30;;;10.10;99.90;;;;;;10459365;28;20250;-80
2023/12/23 21:34:59;;;;;;;1.40;1.30;;;10.10;99.90;;;;;;10455811;28;20213;-79
2023/12/23 21:40:01;;;;;;;1.63;1.53;;;10.10;99.90;;;;;;10457834;28;20208;-80
2023/12/23 21:45:04;;;;;;;2.20;1.47;;;10.10;99.90;;;;;;10450373;28;20229;-79
2023/12/23 21:50:09;;;;;;;1.43;1.40;;;10.10;99.90;;;;;;10460739;28;20266;-79
2023/12/23 21:55:11;;;;;;;1.80;1.70;;;10.10;99.90;;;;;;10454695;28;20217;-79
2023/12/23 22:00:14;;;;;;;1.47;1.43;;;10.10;99.90;;;;;;10470194;28;20209;-79
2023/12/23 22:05:18;;;;;;;1.23;1.13;;;10.20;99.90;;;;;;10455783;28;20771;-79
2023/12/23 22:10:21;;;;;;;1.30;1.30;;;10.10;99.90;;;;;;10469737;28;20658;-79
2023/12/23 22:15:24;;;;;;;1.30;1.20;;;10.10;99.90;;;;;;10445910;28;20279;-79
2023/12/23 22:20:27;;;;;;;5.50;4.20;;;10.20;99.90;;;;;;10471117;28;20669;-79
2023/12/23 22:25:30;;;;;;;1.70;1.60;;;10.20;99.90;;;;;;10470951;28;20732;-79
2023/12/23 22:30:32;;;;;;;1.37;1.37;;;10.20;99.90;;;;;;10474506;28;20200;-79
2023/12/23 22:35:36;;;;;;;1.30;1.30;;;10.20;99.90;;;;;;10469625;28;20228;-79
2023/12/23 22:40:38;;;;;;;1.40;1.40;;;10.20;99.90;;;;;;10471687;28;20200;-80
2023/12/23 22:45:41;;;;;;;1.30;1.30;;;10.20;99.90;;;;;;10470179;28;20224;-79
2023/12/23 22:50:45;;;;;;;1.90;1.80;;;10.20;99.90;;;;;;10468692;28;20194;-79
2023/12/23 22:55:47;;;;;;;2.40;1.37;;;10.20;99.90;;;;;;10449736;28;20208;-79
2023/12/23 23:00:49;;;;;;;1.50;1.40;;;10.20;99.90;;;;;;10466432;28;20208;-79
2023/12/23 23:05:53;;;;;;;1.63;1.53;;;10.20;99.90;;;;;;10445468;28;20471;-79
2023/12/23 23:10:56;;;;;;;1.50;1.50;;;10.20;99.90;;;;;;10467821;28;20201;-80
2023/12/23 23:15:58;;;;;;;1.23;1.23;;;10.20;99.90;;;;;;10471114;28;20291;-79
2023/12/23 23:21:02;;;;;;;1.50;1.40;;;10.20;99.90;;;;;;10475323;28;20242;-79
2023/12/23 23:26:05;;;;;;;1.80;1.70;;;10.20;99.90;;;;;;10497303;28;20224;-79
2023/12/23 23:31:08;;;;;;;1.30;1.20;;;10.30;99.90;;;;;;10495066;28;20197;-80
2023/12/23 23:36:16;;;;;;;1.63;1.53;;;10.20;99.90;;;;;;10471190;28;20270;-79
2023/12/23 23:41:20;;;;;;;1.20;1.20;;;10.20;99.90;;;;;;10460543;28;20216;-79
2023/12/23 23:46:22;;;;;;;1.70;1.60;;;10.20;99.90;;;;;;10446863;28;20297;-79
2023/12/23 23:51:26;;;;;;;1.70;1.60;;;10.30;99.90;;;;;;10458886;28;20197;-79
2023/12/23 23:56:28;;;;;;;1.90;1.80;;;10.20;99.90;;;;;;10461325;28;20221;-79
